createdAt,value
2022-10-23T00:02:13.248Z,5.97
2022-10-23T00:04:40.882Z,7.05
2022-10-23T00:07:08.703Z,7.25
2022-10-23T00:09:36.681Z,6.95
2022-10-23T00:12:04.221Z,7.37
2022-10-23T00:14:31.679Z,6.90
2022-10-23T00:16:59.188Z,6.78
2022-10-23T00:19:26.519Z,7.90
2022-10-23T00:21:54.094Z,7.18
2022-10-23T00:24:21.399Z,7.77
2022-10-23T00:26:51.205Z,7.68
2022-10-23T00:29:18.647Z,7.10
2022-10-23T00:31:45.970Z,6.90
2022-10-23T00:34:13.285Z,6.70
2022-10-23T00:36:41.593Z,7.10
2022-10-23T00:39:09.342Z,7.20
2022-10-23T00:41:36.925Z,7.55
2022-10-23T00:44:19.372Z,7.55
2022-10-23T00:46:46.933Z,7.78
2022-10-23T00:49:14.994Z,7.13
2022-10-23T00:51:49.275Z,7.35
2022-10-23T00:54:23.938Z,7.78
2022-10-23T00:57:04.736Z,6.93
2022-10-23T00:59:33.379Z,6.38
2022-10-23T01:02:01.268Z,6.77
2022-10-23T01:04:29.280Z,7.18
2022-10-23T01:07:10.335Z,7.30
2022-10-23T01:10:02.527Z,7.50
2022-10-23T01:12:51.122Z,7.45
2022-10-23T01:15:49.541Z,8.07
2022-10-23T01:18:31.766Z,6.80
2022-10-23T01:21:20.180Z,6.93
2022-10-23T01:24:20.114Z,8.35
2022-10-23T01:27:11.491Z,7.28
2022-10-23T01:29:46.559Z,7.70
2022-10-23T01:32:20.323Z,7.97
2022-10-23T01:34:53.355Z,8.02
2022-10-23T01:37:33.893Z,8.88
2022-10-23T01:40:07.415Z,9.40
2022-10-23T01:42:45.424Z,10.50
2022-10-23T01:45:36.837Z,10.45
2022-10-23T01:48:06.267Z,8.15
2022-10-23T01:50:35.815Z,8.23
2022-10-23T01:53:05.948Z,8.80
2022-10-23T01:55:34.149Z,7.77
2022-10-23T01:58:07.896Z,9.43
2022-10-23T02:00:42.573Z,8.55
2022-10-23T02:03:12.201Z,8.75
2022-10-23T02:05:39.690Z,8.35
2022-10-23T02:08:07.747Z,8.40
2022-10-23T02:10:41.495Z,7.60
2022-10-23T02:13:15.342Z,8.40
2022-10-23T02:15:56.205Z,7.47
2022-10-23T02:18:38.801Z,7.32
2022-10-23T02:21:11.543Z,7.30
2022-10-23T02:23:40.926Z,8.15
2022-10-23T02:26:19.540Z,8.27
2022-10-23T02:28:57.334Z,6.95
2022-10-23T02:31:24.916Z,7.72
2022-10-23T02:33:53.911Z,7.87
2022-10-23T02:36:22.679Z,7.60
2022-10-23T02:38:49.963Z,8.02
2022-10-23T02:41:35.542Z,8.70
2022-10-23T02:44:12.476Z,9.00
2022-10-23T02:46:50.831Z,8.07
2022-10-23T02:49:34.501Z,8.95
2022-10-23T02:52:27.813Z,9.45
2022-10-23T02:55:20.506Z,10.15
2022-10-23T02:58:04.739Z,9.90
2022-10-23T03:00:36.043Z,8.70
2022-10-23T03:03:10.396Z,8.73
2022-10-23T03:05:40.928Z,9.35
2022-10-23T03:08:13.663Z,10.27
2022-10-23T03:10:42.865Z,10.10
2022-10-23T03:13:12.486Z,9.63
2022-10-23T03:15:44.243Z,9.60
2022-10-23T03:18:15.884Z,9.77
2022-10-23T03:20:48.152Z,9.38
2022-10-23T03:23:15.646Z,10.02
2022-10-23T03:25:43.618Z,9.70
2022-10-23T03:28:21.242Z,10.02
2022-10-23T03:30:49.928Z,9.18
2022-10-23T03:33:17.413Z,8.43
2022-10-23T03:38:18.387Z,8.57
2022-10-23T03:40:46.217Z,8.70
2022-10-23T03:43:14.338Z,8.40
2022-10-23T03:45:41.781Z,9.95
2022-10-23T03:48:09.123Z,9.15
2022-10-23T03:50:36.945Z,8.57
2022-10-23T03:53:05.835Z,9.80
2022-10-23T03:55:34.803Z,9.13
2022-10-23T03:58:02.351Z,9.45
2022-10-23T04:00:30.848Z,8.52
2022-10-23T04:03:01.252Z,7.97
2022-10-23T04:05:28.832Z,8.73
2022-10-23T04:07:58.916Z,10.63
2022-10-23T04:10:26.413Z,9.98
2022-10-23T04:12:53.763Z,10.30
2022-10-23T04:15:21.372Z,9.57
2022-10-23T04:17:48.856Z,9.27
2022-10-23T04:20:16.317Z,8.73
2022-10-23T04:22:44.055Z,9.20
2022-10-23T04:25:11.768Z,8.45
2022-10-23T04:27:39.423Z,9.87
2022-10-23T04:30:07.697Z,8.30
2022-10-23T04:32:35.657Z,7.55
2022-10-23T04:35:05.385Z,8.13
2022-10-23T04:37:32.877Z,7.95
2022-10-23T04:40:00.722Z,8.13
2022-10-23T04:45:02.174Z,7.53
2022-10-23T04:47:30.387Z,8.43
2022-10-23T04:49:59.783Z,7.50
2022-10-23T04:52:54.967Z,7.70
2022-10-23T04:55:34.473Z,8.13
2022-10-23T04:58:10.709Z,8.63
2022-10-23T05:00:38.121Z,8.65
2022-10-23T05:03:05.640Z,8.20
2022-10-23T05:05:38.106Z,8.17
2022-10-23T05:08:28.621Z,7.78
2022-10-23T05:11:20.690Z,8.40
2022-10-23T05:13:50.301Z,7.57
2022-10-23T05:16:42.511Z,7.95
2022-10-23T05:19:15.525Z,7.13
2022-10-23T05:21:43.429Z,8.57
2022-10-23T05:24:11.317Z,8.95
2022-10-23T05:26:39.437Z,8.93
2022-10-23T05:29:08.468Z,8.80
2022-10-23T05:31:36.694Z,8.53
2022-10-23T05:34:15.574Z,7.88
2022-10-23T05:36:45.237Z,8.60
2022-10-23T05:39:14.223Z,8.40
2022-10-23T05:41:42.153Z,8.15
2022-10-23T05:44:09.607Z,8.47
2022-10-23T05:46:55.806Z,8.25
2022-10-23T05:49:43.523Z,9.07
2022-10-23T05:52:29.314Z,8.70
2022-10-23T05:55:09.866Z,8.63
2022-10-23T05:57:51.030Z,9.17
2022-10-23T06:00:26.603Z,8.90
2022-10-23T06:03:11.120Z,8.35
2022-10-23T06:05:50.032Z,8.50
2022-10-23T06:08:20.943Z,9.27
2022-10-23T06:10:50.950Z,9.00
2022-10-23T06:13:19.413Z,8.23
2022-10-23T06:15:47.134Z,7.93
2022-10-23T06:18:19.553Z,7.88
2022-10-23T06:21:02.080Z,8.02
2022-10-23T06:23:32.722Z,8.80
2022-10-23T06:26:19.932Z,8.90
2022-10-23T06:29:06.734Z,9.57
2022-10-23T06:31:34.180Z,8.73
2022-10-23T06:34:02.873Z,8.77
2022-10-23T06:36:31.927Z,8.90
2022-10-23T06:39:07.866Z,8.40
2022-10-23T06:41:53.713Z,9.40
2022-10-23T06:44:57.574Z,8.77
2022-10-23T06:47:46.090Z,8.77
2022-10-23T06:50:33.975Z,7.83
2022-10-23T06:53:07.260Z,7.68
2022-10-23T06:55:40.253Z,7.47
2022-10-23T06:58:11.126Z,8.23
2022-10-23T07:00:53.423Z,7.60
2022-10-23T07:03:20.872Z,7.17
2022-10-23T07:05:48.375Z,6.82
2022-10-23T07:08:16.369Z,8.15
2022-10-23T07:10:46.347Z,7.20
2022-10-23T07:13:13.763Z,7.78
2022-10-23T07:15:54.597Z,7.83
2022-10-23T07:18:25.129Z,6.20
2022-10-23T07:21:12.443Z,6.63
2022-10-23T07:23:40.942Z,6.40
2022-10-23T07:26:11.924Z,6.25
2022-10-23T07:28:39.677Z,5.53
2022-10-23T07:31:07.689Z,6.45
2022-10-23T07:33:53.706Z,6.22
2022-10-23T07:36:25.032Z,5.63
2022-10-23T07:38:52.847Z,5.68
2022-10-23T07:41:21.719Z,5.60
2022-10-23T07:43:49.203Z,5.15
2022-10-23T07:46:17.157Z,4.57
2022-10-23T07:48:44.802Z,4.72
2022-10-23T07:51:15.378Z,4.60
2022-10-23T07:53:46.771Z,5.00
2022-10-23T07:56:30.062Z,4.85
2022-10-23T07:59:16.024Z,5.22
2022-10-23T08:01:51.640Z,4.10
2022-10-23T08:04:21.885Z,4.45
2022-10-23T08:06:56.634Z,4.57
2022-10-23T08:09:26.088Z,4.60
2022-10-23T08:11:55.342Z,4.65
2022-10-23T08:14:24.740Z,4.75
2022-10-23T08:16:52.510Z,4.60
2022-10-23T08:19:20.152Z,4.30
2022-10-23T08:21:54.909Z,4.50
2022-10-23T08:24:22.557Z,3.63
2022-10-23T08:26:50.741Z,4.63
2022-10-23T08:29:22.048Z,5.05
2022-10-23T08:31:49.945Z,4.03
2022-10-23T08:34:27.642Z,4.00
2022-10-23T08:36:55.808Z,4.30
2022-10-23T08:39:24.422Z,3.80
2022-10-23T08:42:27.050Z,3.72
2022-10-23T08:45:13.920Z,3.23
2022-10-23T08:47:56.019Z,3.80
2022-10-23T08:50:47.824Z,3.83
2022-10-23T08:53:30.194Z,3.45
2022-10-23T08:56:04.840Z,3.40
2022-10-23T08:58:40.830Z,4.37
2022-10-23T09:01:40.828Z,4.20
2022-10-23T09:04:12.063Z,4.10
2022-10-23T09:07:03.409Z,3.30
2022-10-23T09:09:59.831Z,3.38
2022-10-23T09:12:29.394Z,4.40
2022-10-23T09:15:17.663Z,3.67
2022-10-23T09:17:46.663Z,3.72
2022-10-23T09:20:22.152Z,3.67
2022-10-23T09:22:55.202Z,4.15
2022-10-23T09:25:29.777Z,5.33
2022-10-23T09:28:01.611Z,4.07
2022-10-23T09:30:40.277Z,3.80
2022-10-23T09:33:18.846Z,3.05
2022-10-23T09:35:58.409Z,3.45
2022-10-23T09:38:36.253Z,3.77
2022-10-23T09:41:19.980Z,3.70
2022-10-23T09:43:47.540Z,3.70
2022-10-23T09:46:20.061Z,3.10
2022-10-23T09:49:00.872Z,3.40
2022-10-23T09:51:30.998Z,3.73
2022-10-23T09:54:00.595Z,3.60
2022-10-23T09:56:32.339Z,3.05
2022-10-23T09:59:12.076Z,3.10
2022-10-23T10:01:48.983Z,3.03
2022-10-23T10:04:38.403Z,3.37
2022-10-23T10:07:18.117Z,3.65
2022-10-23T10:09:45.710Z,3.33
2022-10-23T10:12:31.281Z,3.70
2022-10-23T10:15:28.632Z,3.90
2022-10-23T10:18:25.022Z,3.53
2022-10-23T10:21:14.884Z,3.90
2022-10-23T10:23:45.686Z,3.53
2022-10-23T10:26:16.616Z,3.20
2022-10-23T10:29:10.942Z,3.30
2022-10-23T10:32:13.858Z,3.37
2022-10-23T10:34:54.021Z,3.22
2022-10-23T10:37:51.382Z,3.15
2022-10-23T10:40:27.901Z,3.00
2022-10-23T10:43:21.264Z,3.47
2022-10-23T10:45:52.947Z,2.83
2022-10-23T10:48:44.025Z,3.10
2022-10-23T10:52:03.490Z,3.50
2022-10-23T10:54:59.733Z,2.85
2022-10-23T10:57:46.624Z,3.10
2022-10-23T11:00:16.388Z,2.97
2022-10-23T11:02:59.419Z,3.97
2022-10-23T11:05:33.836Z,9.48
2022-10-23T11:08:15.386Z,3.53
2022-10-23T11:10:48.022Z,2.80
2022-10-23T11:13:29.494Z,3.17
2022-10-23T11:16:01.985Z,3.00
2022-10-23T11:18:32.037Z,2.58
2022-10-23T11:21:12.978Z,2.55
2022-10-23T11:24:05.091Z,2.50
2022-10-23T11:27:02.580Z,2.83
2022-10-23T11:29:48.460Z,2.85
2022-10-23T11:35:42.307Z,2.50
2022-10-23T11:38:20.468Z,2.65
2022-10-23T11:41:01.416Z,2.17
2022-10-23T11:43:33.784Z,2.30
2022-10-23T11:46:30.550Z,2.90
2022-10-23T11:48:58.683Z,1.85
2022-10-23T11:51:46.317Z,2.10
2022-10-23T11:54:24.829Z,1.77
2022-10-23T11:57:13.278Z,1.80
2022-10-23T11:59:43.946Z,2.63
2022-10-23T12:02:32.464Z,1.75
2022-10-23T12:05:24.590Z,2.78
2022-10-23T12:07:57.324Z,1.50
2022-10-23T12:10:31.173Z,1.67
2022-10-23T12:13:06.247Z,2.05
2022-10-23T12:15:35.380Z,1.98
2022-10-23T12:18:15.695Z,1.83
2022-10-23T12:20:49.759Z,1.60
2022-10-23T12:23:51.738Z,1.50
2022-10-23T12:26:19.227Z,1.90
2022-10-23T12:29:02.521Z,1.88
2022-10-23T12:31:52.421Z,1.83
2022-10-23T12:34:43.425Z,1.47
2022-10-23T12:37:38.851Z,1.60
2022-10-23T12:40:10.914Z,1.95
2022-10-23T12:42:38.916Z,1.50
2022-10-23T12:45:24.132Z,1.98
2022-10-23T12:47:54.220Z,1.97
2022-10-23T12:50:27.630Z,1.55
2022-10-23T12:53:03.560Z,1.13
2022-10-23T12:55:53.141Z,1.50
2022-10-23T12:58:32.910Z,1.35
2022-10-23T13:01:07.834Z,1.70
2022-10-23T13:03:36.371Z,1.70
2022-10-23T13:06:04.691Z,1.73
2022-10-23T13:08:44.252Z,1.25
2022-10-23T13:11:34.775Z,1.83
2022-10-23T13:14:13.365Z,1.50
2022-10-23T13:16:40.841Z,1.30
2022-10-23T13:19:23.609Z,1.42
2022-10-23T13:21:51.110Z,1.50
2022-10-23T13:24:23.021Z,1.77
2022-10-23T13:26:50.903Z,1.50
2022-10-23T13:29:23.385Z,1.50
2022-10-23T13:31:51.358Z,1.80
2022-10-23T13:34:28.498Z,1.65
2022-10-23T13:37:01.312Z,1.90
2022-10-23T13:39:34.260Z,1.70
2022-10-23T13:42:12.077Z,1.80
2022-10-23T13:44:39.971Z,1.73
2022-10-23T13:47:12.793Z,1.70
2022-10-23T13:49:41.753Z,1.80
2022-10-23T13:52:13.236Z,1.97
2022-10-23T13:54:40.621Z,1.90
2022-10-23T13:57:14.685Z,2.15
2022-10-23T13:59:43.028Z,1.80
2022-10-23T14:02:22.957Z,1.75
2022-10-23T14:04:51.392Z,1.60
2022-10-23T14:07:18.996Z,1.70
2022-10-23T14:09:46.599Z,1.60
2022-10-23T14:12:14.021Z,1.70
2022-10-23T14:14:41.409Z,1.80
2022-10-23T14:17:08.736Z,1.90
2022-10-23T14:22:04.665Z,1.70
2022-10-23T14:24:32.110Z,2.30
2022-10-23T14:26:59.982Z,1.80
2022-10-23T14:29:27.603Z,1.83
2022-10-23T14:31:56.741Z,2.00
2022-10-23T14:34:24.096Z,2.05
2022-10-23T14:37:04.010Z,2.10
2022-10-23T14:39:35.750Z,2.00
2022-10-23T14:42:03.483Z,1.90
2022-10-23T14:44:33.197Z,1.90
2022-10-23T14:47:00.528Z,2.03
2022-10-23T14:49:27.819Z,2.00
2022-10-23T14:51:55.198Z,1.88
2022-10-23T14:54:22.797Z,2.00
2022-10-23T14:56:50.223Z,1.70
2022-10-23T14:59:17.588Z,1.90
2022-10-23T15:01:48.393Z,1.90
2022-10-23T15:04:16.501Z,1.70
2022-10-23T15:06:44.587Z,2.20
2022-10-23T15:09:12.222Z,2.00
2022-10-23T15:11:39.981Z,1.98
2022-10-23T15:14:07.937Z,2.42
2022-10-23T15:16:41.646Z,1.95
2022-10-23T15:19:18.192Z,2.10
2022-10-23T15:21:47.671Z,1.77
2022-10-23T15:24:16.483Z,2.20
2022-10-23T15:26:45.295Z,1.88
2022-10-23T15:29:13.067Z,2.03
2022-10-23T15:31:47.731Z,2.30
2022-10-23T15:34:18.930Z,2.22
2022-10-23T15:36:47.314Z,2.15
2022-10-23T15:39:17.221Z,2.70
2022-10-23T15:41:45.277Z,2.70
2022-10-23T15:44:16.632Z,2.47
2022-10-23T15:46:44.548Z,2.60
2022-10-23T15:49:13.053Z,3.42
2022-10-23T15:51:41.315Z,2.50
2022-10-23T15:54:16.719Z,2.63
2022-10-23T15:56:44.933Z,2.80
2022-10-23T15:59:12.749Z,2.60
2022-10-23T16:01:40.243Z,2.70
2022-10-23T16:04:08.886Z,2.38
2022-10-23T16:06:36.675Z,2.50
2022-10-23T16:09:04.167Z,2.60
2022-10-23T16:11:35.678Z,2.30
2022-10-23T16:14:05.328Z,2.17
2022-10-23T16:16:35.553Z,2.50
2022-10-23T16:19:05.384Z,2.10
2022-10-23T16:21:36.228Z,1.80
2022-10-23T16:24:08.277Z,2.20
2022-10-23T16:26:36.194Z,1.92
2022-10-23T16:29:06.987Z,2.03
2022-10-23T16:31:35.753Z,1.92
2022-10-23T16:34:05.142Z,2.93
2022-10-23T16:36:33.005Z,2.15
2022-10-23T16:39:20.873Z,2.30
2022-10-23T16:42:07.063Z,2.70
2022-10-23T16:44:53.346Z,2.25
2022-10-23T16:47:20.750Z,2.10
2022-10-23T16:49:48.088Z,2.22
2022-10-23T16:52:15.776Z,2.80
2022-10-23T16:54:44.521Z,2.45
2022-10-23T16:57:11.897Z,2.42
2022-10-23T16:59:39.283Z,2.30
2022-10-23T17:02:08.438Z,2.78
2022-10-23T17:04:36.721Z,2.75
2022-10-23T17:07:04.599Z,2.70
2022-10-23T17:09:32.297Z,3.20
2022-10-23T17:12:00.386Z,2.33
2022-10-23T17:14:31.221Z,2.65
2022-10-23T17:17:01.877Z,3.22
2022-10-23T17:19:47.210Z,2.80
2022-10-23T17:22:15.471Z,3.33
2022-10-23T17:24:46.241Z,3.00
2022-10-23T17:27:16.487Z,2.50
2022-10-23T17:29:43.961Z,2.72
2022-10-23T17:32:12.854Z,2.80
2022-10-23T17:34:41.342Z,2.70
2022-10-23T17:37:10.491Z,2.60
2022-10-23T17:39:38.128Z,2.90
2022-10-23T17:42:05.508Z,3.90
2022-10-23T17:44:33.674Z,3.53
2022-10-23T17:47:01.042Z,4.63
2022-10-23T17:49:28.627Z,4.53
2022-10-23T17:51:57.735Z,3.65
2022-10-23T17:54:26.542Z,3.83
2022-10-23T17:56:54.023Z,3.40
2022-10-23T17:59:22.816Z,4.22
2022-10-23T18:01:51.512Z,3.90
2022-10-23T18:04:20.610Z,4.32
2022-10-23T18:06:50.806Z,4.28
2022-10-23T18:09:20.190Z,4.30
2022-10-23T18:11:48.708Z,4.05
2022-10-23T18:14:21.049Z,3.77
2022-10-23T18:16:49.661Z,3.40
2022-10-23T18:19:18.642Z,4.32
2022-10-23T18:21:46.988Z,3.92
2022-10-23T18:24:14.791Z,3.70
2022-10-23T18:26:42.737Z,3.67
2022-10-23T18:29:13.180Z,3.70
2022-10-23T18:31:41.468Z,3.10
2022-10-23T18:34:15.583Z,3.20
2022-10-23T18:36:44.460Z,3.70
2022-10-23T18:39:15.123Z,4.57
2022-10-23T18:41:45.894Z,4.40
2022-10-23T18:44:17.683Z,4.85
2022-10-23T18:46:48.751Z,4.50
2022-10-23T18:49:18.854Z,3.83
2022-10-23T18:51:46.509Z,4.07
2022-10-23T18:54:16.644Z,3.85
2022-10-23T18:56:44.260Z,3.17
2022-10-23T18:59:14.546Z,3.28
2022-10-23T19:01:42.175Z,3.60
2022-10-23T19:04:12.122Z,3.30
2022-10-23T19:06:40.315Z,3.92
2022-10-23T19:09:09.153Z,3.50
2022-10-23T19:11:37.716Z,3.45
2022-10-23T19:14:05.943Z,3.80
2022-10-23T19:17:01.913Z,3.30
2022-10-23T19:19:35.124Z,3.42
2022-10-23T19:22:04.250Z,3.33
2022-10-23T19:24:40.737Z,2.97
2022-10-23T19:27:08.826Z,3.30
2022-10-23T19:29:40.273Z,3.33
2022-10-23T19:32:07.684Z,3.70
2022-10-23T19:34:35.129Z,3.58
2022-10-23T19:37:05.610Z,3.50
2022-10-23T19:39:33.321Z,3.47
2022-10-23T19:42:01.057Z,3.20
2022-10-23T19:44:28.827Z,3.30
2022-10-23T19:46:56.441Z,3.20
2022-10-23T19:49:24.201Z,3.30
2022-10-23T19:51:51.768Z,2.95
2022-10-23T19:54:20.335Z,3.37
2022-10-23T19:56:48.811Z,3.10
2022-10-23T19:59:16.288Z,3.55
2022-10-23T20:01:46.479Z,2.97
2022-10-23T20:04:18.428Z,3.20
2022-10-23T20:06:46.171Z,3.53
2022-10-23T20:09:13.752Z,3.30
2022-10-23T20:11:42.000Z,2.75
2022-10-23T20:14:09.810Z,3.00
2022-10-23T20:16:39.693Z,2.53
2022-10-23T20:19:09.840Z,2.90
2022-10-23T20:21:39.252Z,2.90
2022-10-23T20:24:07.524Z,3.30
2022-10-23T20:26:35.049Z,3.15
2022-10-23T20:29:03.791Z,3.78
2022-10-23T20:31:33.774Z,3.07
2022-10-23T20:34:01.104Z,3.22
2022-10-23T20:36:31.132Z,3.42
2022-10-23T20:39:01.842Z,2.92
2022-10-23T20:41:29.421Z,3.38
2022-10-23T20:43:57.268Z,2.97
2022-10-23T20:46:24.942Z,3.25
2022-10-23T20:48:53.452Z,3.35
2022-10-23T20:51:25.350Z,2.88
2022-10-23T20:53:55.224Z,2.80
2022-10-23T20:56:31.493Z,2.93
2022-10-23T20:59:01.008Z,3.70
2022-10-23T21:01:29.497Z,2.67
2022-10-23T21:04:00.839Z,2.25
2022-10-23T21:06:41.049Z,2.60
2022-10-23T21:09:17.939Z,2.90
2022-10-23T21:11:45.435Z,2.60
2022-10-23T21:14:12.867Z,2.63
2022-10-23T21:16:42.122Z,2.95
2022-10-23T21:19:11.605Z,3.30
2022-10-23T21:21:39.641Z,2.97
2022-10-23T21:24:09.886Z,2.95
2022-10-23T21:26:37.639Z,3.53
2022-10-23T21:29:18.061Z,3.53
2022-10-23T21:31:55.248Z,3.45
2022-10-23T21:34:24.400Z,3.60
2022-10-23T21:39:39.475Z,3.60
2022-10-23T21:42:07.215Z,4.60
2022-10-23T21:44:34.699Z,4.50
2022-10-23T21:47:03.546Z,4.07
2022-10-23T21:49:34.022Z,4.50
2022-10-23T21:52:02.025Z,5.00
2022-10-23T21:54:29.547Z,4.13
2022-10-23T21:56:57.157Z,3.95
2022-10-23T21:59:29.102Z,3.57
2022-10-23T22:01:59.427Z,3.65
2022-10-23T22:04:27.162Z,2.95
2022-10-23T22:06:57.403Z,3.15
2022-10-23T22:09:24.817Z,2.88
2022-10-23T22:11:53.852Z,2.97
2022-10-23T22:14:21.826Z,3.00
2022-10-23T22:16:51.202Z,3.33
2022-10-23T22:19:20.191Z,3.53
2022-10-23T22:21:49.734Z,3.25
2022-10-23T22:24:20.855Z,2.77
2022-10-23T22:26:52.394Z,3.53
2022-10-23T22:29:23.606Z,2.75
2022-10-23T22:31:51.096Z,2.90
2022-10-23T22:34:48.005Z,2.60
2022-10-23T22:37:12.369Z,2.30
2022-10-23T22:39:40.863Z,2.92
2022-10-23T22:42:09.089Z,2.47
2022-10-23T22:44:36.678Z,2.47
2022-10-23T22:47:04.453Z,2.45
2022-10-23T22:49:31.851Z,2.30
2022-10-23T22:51:59.405Z,2.78
2022-10-23T22:54:27.881Z,2.63
2022-10-23T22:56:55.976Z,2.70
2022-10-23T22:59:23.387Z,2.30
2022-10-23T23:01:51.504Z,2.37
2022-10-23T23:04:37.325Z,2.78
2022-10-23T23:07:07.900Z,2.40
2022-10-23T23:09:43.075Z,2.42
2022-10-23T23:12:12.987Z,2.22
2022-10-23T23:14:40.845Z,2.30
2022-10-23T23:17:09.649Z,2.53
2022-10-23T23:19:37.362Z,2.40
2022-10-23T23:22:04.895Z,2.55
2022-10-23T23:24:32.543Z,2.65
2022-10-23T23:27:00.079Z,2.40
2022-10-23T23:29:28.827Z,2.60
2022-10-23T23:31:57.994Z,2.30
2022-10-23T23:34:25.570Z,2.10
2022-10-23T23:36:53.078Z,2.40
2022-10-23T23:39:20.402Z,2.23
2022-10-23T23:41:47.693Z,2.28
2022-10-23T23:44:15.095Z,2.17
2022-10-23T23:46:42.470Z,2.20
2022-10-23T23:49:09.793Z,2.28
2022-10-23T23:51:37.941Z,2.63
2022-10-23T23:54:05.395Z,2.30
2022-10-23T23:56:33.321Z,2.60
2022-10-23T23:59:01.798Z,2.78
